createdAt,value
2022-09-18T00:02:18.996Z,8.80
2022-09-18T00:04:45.739Z,8.80
2022-09-18T00:07:12.423Z,8.80
2022-09-18T00:09:39.086Z,10.10
2022-09-18T00:12:05.810Z,8.80
2022-09-18T00:14:32.381Z,8.80
2022-09-18T00:16:58.955Z,8.90
2022-09-18T00:19:25.609Z,9.00
2022-09-18T00:21:52.305Z,9.00
2022-09-18T00:24:19.608Z,9.10
2022-09-18T00:26:46.944Z,9.20
2022-09-18T00:29:14.151Z,10.40
2022-09-18T00:31:41.136Z,9.10
2022-09-18T00:34:10.429Z,9.10
2022-09-18T00:36:37.694Z,9.10
2022-09-18T00:39:05.222Z,9.20
2022-09-18T00:41:33.374Z,9.10
2022-09-18T00:44:20.183Z,10.80
2022-09-18T00:46:46.895Z,9.10
2022-09-18T00:49:17.194Z,9.10
2022-09-18T00:51:45.278Z,9.00
2022-09-18T00:54:16.573Z,9.00
2022-09-18T00:56:43.521Z,9.00
2022-09-18T00:59:10.992Z,9.00
2022-09-18T01:01:37.700Z,8.90
2022-09-18T01:04:06.255Z,9.90
2022-09-18T01:06:51.872Z,9.00
2022-09-18T01:09:28.223Z,8.90
2022-09-18T01:12:24.927Z,9.70
2022-09-18T01:15:05.633Z,8.90
2022-09-18T01:17:38.302Z,8.90
2022-09-18T01:20:14.713Z,8.90
2022-09-18T01:22:51.966Z,8.90
2022-09-18T01:25:18.652Z,8.90
2022-09-18T01:27:45.283Z,9.00
2022-09-18T01:30:12.847Z,9.00
2022-09-18T01:32:48.435Z,8.90
2022-09-18T01:35:41.139Z,8.90
2022-09-18T01:38:11.517Z,8.90
2022-09-18T01:40:46.900Z,8.90
2022-09-18T01:43:15.159Z,8.90
2022-09-18T01:45:44.498Z,10.40
2022-09-18T01:48:12.658Z,9.70
2022-09-18T01:50:41.530Z,10.80
2022-09-18T01:53:08.281Z,10.60
2022-09-18T01:55:36.650Z,8.90
2022-09-18T01:58:08.879Z,10.40
2022-09-18T02:00:41.630Z,8.90
2022-09-18T02:03:11.355Z,8.90
2022-09-18T02:05:40.562Z,8.90
2022-09-18T02:08:25.882Z,8.90
2022-09-18T02:10:55.247Z,8.90
2022-09-18T02:13:24.780Z,9.00
2022-09-18T02:15:53.374Z,10.50
2022-09-18T02:18:24.431Z,9.00
2022-09-18T02:20:52.077Z,9.60
2022-09-18T02:23:19.108Z,9.00
2022-09-18T02:25:52.040Z,11.00
2022-09-18T02:28:19.980Z,8.90
2022-09-18T02:30:46.781Z,10.70
2022-09-18T02:33:23.710Z,10.90
2022-09-18T02:35:53.358Z,8.80
2022-09-18T02:38:29.127Z,8.90
2022-09-18T02:40:55.760Z,8.80
2022-09-18T02:43:37.694Z,8.90
2022-09-18T02:46:07.371Z,8.80
2022-09-18T02:48:33.944Z,8.80
2022-09-18T02:51:24.085Z,8.80
2022-09-18T02:54:02.916Z,8.80
2022-09-18T02:56:35.267Z,8.80
2022-09-18T02:59:04.855Z,8.80
2022-09-18T03:01:32.430Z,8.80
2022-09-18T03:04:05.971Z,8.90
2022-09-18T03:06:32.824Z,8.80
2022-09-18T03:09:00.051Z,8.80
2022-09-18T03:11:26.825Z,8.80
2022-09-18T03:13:53.475Z,8.80
2022-09-18T03:16:20.564Z,8.90
2022-09-18T03:18:47.431Z,8.80
2022-09-18T03:21:14.188Z,8.80
2022-09-18T03:23:44.857Z,10.70
2022-09-18T03:26:12.222Z,11.00
2022-09-18T03:28:38.794Z,8.90
2022-09-18T03:31:05.452Z,8.90
2022-09-18T03:33:32.147Z,8.90
2022-09-18T03:35:58.891Z,9.00
2022-09-18T03:38:25.500Z,8.90
2022-09-18T03:40:52.202Z,10.90
2022-09-18T03:43:19.010Z,10.50
2022-09-18T03:45:45.622Z,8.90
2022-09-18T03:48:12.235Z,8.90
2022-09-18T03:50:38.884Z,9.00
2022-09-18T03:53:05.435Z,8.90
2022-09-18T03:55:32.472Z,8.90
2022-09-18T03:57:59.169Z,8.90
2022-09-18T04:00:25.770Z,8.90
2022-09-18T04:02:52.396Z,9.00
2022-09-18T04:05:19.132Z,9.80
2022-09-18T04:09:23.054Z,9.00
2022-09-18T04:11:52.657Z,10.40
2022-09-18T04:14:19.212Z,9.10
2022-09-18T04:16:45.849Z,9.10
2022-09-18T04:19:12.442Z,12.00
2022-09-18T04:21:39.067Z,10.80
2022-09-18T04:24:06.708Z,10.00
2022-09-18T04:26:36.915Z,9.00
2022-09-18T04:29:04.161Z,9.00
2022-09-18T04:31:30.833Z,9.00
2022-09-18T04:33:57.533Z,9.10
2022-09-18T04:36:24.436Z,9.10
2022-09-18T04:38:51.090Z,9.10
2022-09-18T04:41:17.735Z,9.10
2022-09-18T04:43:44.353Z,9.10
2022-09-18T04:46:11.100Z,10.60
2022-09-18T04:48:37.746Z,10.60
2022-09-18T04:51:04.413Z,9.10
2022-09-18T04:53:32.198Z,9.00
2022-09-18T04:55:58.879Z,10.60
2022-09-18T04:58:25.538Z,11.10
2022-09-18T05:00:52.351Z,10.50
2022-09-18T05:03:21.136Z,12.50
2022-09-18T05:05:48.407Z,9.10
2022-09-18T05:08:14.959Z,10.40
2022-09-18T05:10:42.437Z,9.00
2022-09-18T05:13:09.288Z,9.00
2022-09-18T05:15:36.118Z,9.90
2022-09-18T05:18:07.785Z,10.70
2022-09-18T05:20:37.206Z,9.00
2022-09-18T05:23:03.815Z,8.90
2022-09-18T05:25:31.074Z,8.90
2022-09-18T05:27:58.551Z,9.00
2022-09-18T05:30:26.181Z,10.20
2022-09-18T05:32:58.131Z,9.00
2022-09-18T05:35:26.652Z,9.00
2022-09-18T05:37:53.946Z,9.00
2022-09-18T05:40:21.367Z,9.00
2022-09-18T05:42:48.208Z,9.00
2022-09-18T05:45:15.278Z,9.00
2022-09-18T05:47:41.879Z,9.00
2022-09-18T05:50:09.291Z,9.10
2022-09-18T05:52:36.294Z,9.10
2022-09-18T05:55:02.952Z,9.10
2022-09-18T05:57:29.532Z,9.10
2022-09-18T05:59:56.135Z,9.10
2022-09-18T06:02:22.729Z,9.10
2022-09-18T06:04:49.476Z,9.10
2022-09-18T06:07:17.716Z,9.10
2022-09-18T06:09:44.336Z,9.10
2022-09-18T06:12:11.071Z,9.60
2022-09-18T06:14:37.700Z,9.20
2022-09-18T06:17:04.477Z,10.40
2022-09-18T06:19:31.705Z,11.30
2022-09-18T06:21:58.300Z,10.20
2022-09-18T06:24:25.125Z,11.00
2022-09-18T06:26:52.217Z,10.70
2022-09-18T06:29:18.787Z,9.40
2022-09-18T06:31:45.589Z,11.70
2022-09-18T06:34:12.221Z,11.20
2022-09-18T06:36:38.776Z,9.50
2022-09-18T06:39:05.391Z,10.20
2022-09-18T06:41:31.970Z,9.70
2022-09-18T06:43:58.526Z,9.70
2022-09-18T06:46:28.383Z,9.70
2022-09-18T06:48:55.081Z,9.70
2022-09-18T06:51:21.661Z,11.20
2022-09-18T06:53:48.192Z,9.80
2022-09-18T06:56:15.023Z,10.90
2022-09-18T06:58:41.574Z,11.10
2022-09-18T07:01:08.296Z,9.90
2022-09-18T07:03:34.898Z,10.00
2022-09-18T07:06:01.589Z,11.00
2022-09-18T07:08:28.216Z,12.20
2022-09-18T07:10:59.625Z,10.10
2022-09-18T07:13:26.189Z,10.10
2022-09-18T07:15:52.826Z,10.10
2022-09-18T07:18:20.058Z,11.40
2022-09-18T07:20:46.625Z,10.20
2022-09-18T07:23:13.172Z,10.20
2022-09-18T07:25:39.895Z,10.30
2022-09-18T07:28:10.287Z,10.20
2022-09-18T07:30:37.587Z,11.40
2022-09-18T07:33:04.797Z,11.50
2022-09-18T07:35:32.768Z,10.80
2022-09-18T07:37:59.685Z,10.20
2022-09-18T07:40:26.847Z,10.10
2022-09-18T07:42:58.216Z,10.10
2022-09-18T07:45:24.870Z,10.10
2022-09-18T07:47:51.426Z,10.00
2022-09-18T07:50:18.032Z,11.50
2022-09-18T07:52:55.716Z,10.10
2022-09-18T07:55:23.052Z,10.00
2022-09-18T07:57:59.608Z,10.00
2022-09-18T08:00:27.381Z,10.00
2022-09-18T08:03:03.340Z,10.80
2022-09-18T08:05:30.304Z,10.00
2022-09-18T08:08:01.369Z,10.00
2022-09-18T08:10:28.028Z,11.10
2022-09-18T08:12:54.680Z,10.10
2022-09-18T08:15:21.293Z,11.10
2022-09-18T08:17:47.836Z,10.20
2022-09-18T08:20:14.789Z,10.40
2022-09-18T08:22:41.849Z,10.50
2022-09-18T08:25:08.961Z,12.50
2022-09-18T08:27:36.155Z,10.70
2022-09-18T08:30:02.815Z,10.80
2022-09-18T08:32:29.410Z,10.80
2022-09-18T08:34:56.069Z,11.90
2022-09-18T08:37:22.847Z,10.90
2022-09-18T08:39:49.467Z,12.70
2022-09-18T08:42:25.875Z,11.00
2022-09-18T08:44:59.471Z,10.90
2022-09-18T08:47:41.463Z,10.90
2022-09-18T08:50:28.207Z,10.90
2022-09-18T08:53:00.734Z,11.00
2022-09-18T08:55:33.992Z,11.10
2022-09-18T08:58:07.739Z,11.10
2022-09-18T09:00:36.206Z,11.00
2022-09-18T09:03:16.159Z,13.50
2022-09-18T09:05:49.787Z,11.10
2022-09-18T09:08:27.067Z,11.10
2022-09-18T09:11:03.662Z,11.10
2022-09-18T09:13:42.630Z,11.00
2022-09-18T09:16:09.254Z,11.10
2022-09-18T09:18:48.013Z,12.90
2022-09-18T09:21:20.715Z,11.20
2022-09-18T09:24:21.106Z,11.40
2022-09-18T09:26:48.617Z,11.50
2022-09-18T09:29:29.116Z,11.70
2022-09-18T09:32:18.946Z,11.80
2022-09-18T09:35:11.823Z,12.00
2022-09-18T09:37:43.423Z,12.10
2022-09-18T09:40:16.478Z,12.40
2022-09-18T09:43:03.351Z,12.40
2022-09-18T09:45:29.963Z,12.60
2022-09-18T09:48:00.975Z,12.70
2022-09-18T09:50:33.734Z,14.30
2022-09-18T09:53:05.352Z,13.10
2022-09-18T09:55:54.883Z,13.10
2022-09-18T09:58:24.587Z,13.10
2022-09-18T10:01:01.643Z,13.00
2022-09-18T10:03:46.732Z,13.00
2022-09-18T10:06:19.387Z,13.00
2022-09-18T10:08:53.514Z,13.00
2022-09-18T10:11:20.389Z,12.00
2022-09-18T10:13:50.886Z,13.20
2022-09-18T10:16:19.592Z,14.20
2022-09-18T10:18:47.677Z,14.10
2022-09-18T10:21:15.631Z,13.30
2022-09-18T10:23:43.719Z,13.40
2022-09-18T10:26:13.160Z,13.40
2022-09-18T10:28:39.733Z,14.50
2022-09-18T10:31:10.561Z,13.50
2022-09-18T10:33:41.776Z,14.20
2022-09-18T10:36:16.624Z,13.40
2022-09-18T10:38:43.353Z,13.30
2022-09-18T10:41:22.733Z,14.50
2022-09-18T10:43:53.112Z,13.60
2022-09-18T10:46:26.520Z,13.10
2022-09-18T10:48:53.674Z,13.00
2022-09-18T10:51:21.748Z,13.00
2022-09-18T10:54:07.245Z,13.90
2022-09-18T10:56:33.876Z,13.00
2022-09-18T10:59:13.900Z,13.10
2022-09-18T11:01:44.661Z,13.20
2022-09-18T11:04:15.460Z,13.40
2022-09-18T11:06:44.027Z,13.60
2022-09-18T11:09:11.271Z,13.70
2022-09-18T11:11:42.280Z,13.90
2022-09-18T11:14:22.058Z,14.20
2022-09-18T11:16:50.173Z,14.10
2022-09-18T11:19:40.293Z,14.20
2022-09-18T11:22:26.833Z,14.20
2022-09-18T11:25:06.471Z,15.90
2022-09-18T11:27:44.276Z,15.50
2022-09-18T11:30:21.942Z,15.40
2022-09-18T11:32:50.826Z,14.60
2022-09-18T11:35:19.728Z,17.20
2022-09-18T11:37:54.189Z,15.90
2022-09-18T11:40:43.077Z,14.80
2022-09-18T11:43:22.290Z,14.50
2022-09-18T11:45:51.624Z,14.40
2022-09-18T11:48:18.161Z,14.40
2022-09-18T11:50:45.210Z,15.60
2022-09-18T11:53:17.790Z,14.40
2022-09-18T11:56:01.571Z,14.50
2022-09-18T11:58:28.113Z,14.60
2022-09-18T12:01:04.931Z,15.30
2022-09-18T12:03:34.759Z,14.90
2022-09-18T12:06:06.193Z,15.20
2022-09-18T12:08:34.144Z,15.60
2022-09-18T12:11:00.678Z,14.70
2022-09-18T12:13:36.721Z,15.30
2022-09-18T12:16:16.092Z,14.40
2022-09-18T12:18:55.621Z,14.40
2022-09-18T12:21:29.869Z,14.10
2022-09-18T12:23:56.435Z,13.80
2022-09-18T12:26:33.264Z,15.30
2022-09-18T12:29:06.938Z,13.60
2022-09-18T12:31:51.042Z,13.60
2022-09-18T12:34:20.736Z,13.60
2022-09-18T12:37:02.806Z,13.70
2022-09-18T12:39:39.416Z,13.80
2022-09-18T12:42:30.600Z,13.80
2022-09-18T12:44:57.124Z,13.90
2022-09-18T12:47:38.704Z,13.80
2022-09-18T12:50:23.844Z,13.70
2022-09-18T12:53:10.077Z,13.80
2022-09-18T12:55:46.096Z,14.00
2022-09-18T12:58:31.789Z,14.10
2022-09-18T13:01:01.974Z,14.10
2022-09-18T13:03:34.094Z,14.80
2022-09-18T13:06:12.175Z,14.10
2022-09-18T13:08:41.812Z,14.40
2022-09-18T13:11:10.966Z,14.00
2022-09-18T13:13:48.131Z,14.00
2022-09-18T13:16:17.897Z,13.90
2022-09-18T13:18:47.908Z,14.50
2022-09-18T13:21:19.268Z,13.70
2022-09-18T13:23:46.551Z,13.70
2022-09-18T13:26:14.771Z,15.80
2022-09-18T13:28:42.232Z,15.20
2022-09-18T13:31:14.975Z,13.90
2022-09-18T13:33:53.694Z,13.90
2022-09-18T13:36:29.498Z,13.90
2022-09-18T13:38:58.696Z,13.90
2022-09-18T13:41:25.614Z,14.80
2022-09-18T13:43:54.629Z,13.90
2022-09-18T13:46:35.899Z,15.90
2022-09-18T13:49:12.479Z,13.80
2022-09-18T13:51:40.246Z,15.80
2022-09-18T13:54:21.840Z,13.80
2022-09-18T13:57:10.786Z,13.70
2022-09-18T13:59:53.135Z,13.60
2022-09-18T14:02:25.927Z,13.50
2022-09-18T14:05:03.595Z,13.50
2022-09-18T14:07:30.202Z,13.60
2022-09-18T14:10:04.261Z,13.40
2022-09-18T14:12:35.511Z,13.40
2022-09-18T14:15:20.973Z,15.20
2022-09-18T14:18:06.937Z,13.40
2022-09-18T14:20:34.183Z,13.50
2022-09-18T14:23:19.520Z,13.70
2022-09-18T14:25:46.935Z,13.80
2022-09-18T14:28:14.571Z,14.50
2022-09-18T14:30:41.166Z,14.70
2022-09-18T14:33:11.641Z,15.20
2022-09-18T14:35:43.261Z,13.90
2022-09-18T14:38:36.194Z,14.00
2022-09-18T14:41:09.211Z,14.00
2022-09-18T14:43:39.883Z,14.10
2022-09-18T14:46:07.080Z,14.00
2022-09-18T14:48:37.913Z,14.50
2022-09-18T14:51:06.243Z,14.00
2022-09-18T14:53:40.936Z,14.00
2022-09-18T14:56:09.320Z,14.00
2022-09-18T14:58:37.287Z,14.00
2022-09-18T15:01:05.821Z,14.10
2022-09-18T15:03:41.264Z,13.80
2022-09-18T15:06:18.750Z,13.70
2022-09-18T15:08:47.329Z,13.70
2022-09-18T15:11:15.062Z,13.80
2022-09-18T15:13:42.249Z,13.60
2022-09-18T15:16:19.481Z,14.20
2022-09-18T15:18:46.579Z,13.50
2022-09-18T15:21:24.571Z,13.40
2022-09-18T15:23:51.323Z,13.40
2022-09-18T15:26:18.629Z,14.40
2022-09-18T15:28:47.106Z,13.30
2022-09-18T15:31:14.770Z,13.30
2022-09-18T15:33:51.217Z,13.20
2022-09-18T15:36:23.816Z,14.60
2022-09-18T15:38:50.680Z,13.90
2022-09-18T15:41:26.129Z,13.10
2022-09-18T15:43:52.755Z,13.10
2022-09-18T15:46:30.190Z,13.00
2022-09-18T15:49:00.417Z,13.00
2022-09-18T15:51:31.076Z,13.00
2022-09-18T15:54:00.710Z,14.00
2022-09-18T15:56:27.948Z,12.90
2022-09-18T15:58:57.869Z,13.80
2022-09-18T16:01:37.362Z,13.90
2022-09-18T16:04:15.881Z,12.90
2022-09-18T16:06:48.448Z,12.80
2022-09-18T16:09:34.077Z,12.80
2022-09-18T16:12:01.076Z,12.80
2022-09-18T16:14:37.710Z,12.80
2022-09-18T16:17:22.981Z,12.80
2022-09-18T16:19:49.558Z,12.70
2022-09-18T16:22:16.154Z,13.10
2022-09-18T16:24:42.795Z,12.80
2022-09-18T16:27:13.775Z,13.50
2022-09-18T16:29:40.319Z,12.70
2022-09-18T16:32:13.432Z,13.50
2022-09-18T16:34:40.352Z,12.60
2022-09-18T16:37:08.811Z,12.60
2022-09-18T16:39:35.353Z,12.60
2022-09-18T16:42:13.586Z,12.60
2022-09-18T16:44:40.272Z,12.50
2022-09-18T16:47:09.480Z,12.50
2022-09-18T16:49:37.382Z,12.60
2022-09-18T16:52:04.494Z,12.60
2022-09-18T16:54:31.723Z,12.50
2022-09-18T16:57:00.060Z,12.50
2022-09-18T16:59:27.839Z,12.40
2022-09-18T17:02:03.857Z,14.00
2022-09-18T17:04:31.656Z,12.40
2022-09-18T17:06:58.263Z,12.40
2022-09-18T17:09:24.981Z,12.30
2022-09-18T17:11:52.130Z,12.30
2022-09-18T17:14:19.126Z,13.70
2022-09-18T17:16:45.826Z,14.00
2022-09-18T17:19:12.748Z,14.70
2022-09-18T17:21:39.766Z,13.90
2022-09-18T17:24:06.390Z,12.10
2022-09-18T17:26:34.523Z,12.60
2022-09-18T17:29:01.483Z,13.70
2022-09-18T17:31:28.229Z,12.00
2022-09-18T17:33:55.244Z,13.10
2022-09-18T17:36:22.083Z,12.70
2022-09-18T17:38:48.659Z,13.20
2022-09-18T17:41:16.464Z,13.90
2022-09-18T17:43:43.316Z,11.90
2022-09-18T17:46:11.258Z,13.60
2022-09-18T17:48:38.323Z,13.50
2022-09-18T17:51:06.795Z,14.20
2022-09-18T17:53:33.972Z,11.80
2022-09-18T17:56:00.738Z,13.50
2022-09-18T17:58:27.864Z,11.80
2022-09-18T18:00:54.881Z,12.70
2022-09-18T18:03:21.808Z,13.80
2022-09-18T18:05:57.690Z,12.20
2022-09-18T18:08:27.196Z,11.80
2022-09-18T18:10:54.544Z,13.80
2022-09-18T18:13:21.169Z,12.60
2022-09-18T18:15:50.192Z,13.80
2022-09-18T18:18:18.500Z,12.80
2022-09-18T18:20:51.869Z,14.70
2022-09-18T18:23:18.769Z,11.70
2022-09-18T18:25:47.164Z,14.10
2022-09-18T18:28:13.739Z,13.70
2022-09-18T18:30:45.987Z,14.10
2022-09-18T18:33:12.595Z,12.70
2022-09-18T18:35:39.334Z,13.10
2022-09-18T18:38:05.898Z,13.30
2022-09-18T18:40:32.829Z,12.90
2022-09-18T18:42:59.417Z,12.10
2022-09-18T18:45:26.079Z,12.80
2022-09-18T18:47:53.997Z,12.90
2022-09-18T18:50:21.833Z,13.50
2022-09-18T18:52:51.347Z,12.70
2022-09-18T18:55:18.557Z,11.70
2022-09-18T18:57:45.246Z,12.10
2022-09-18T19:00:12.151Z,13.10
2022-09-18T19:02:38.720Z,11.70
2022-09-18T19:05:06.324Z,11.70
2022-09-18T19:07:33.308Z,11.70
2022-09-18T19:09:59.931Z,11.80
2022-09-18T19:12:26.768Z,13.20
2022-09-18T19:14:53.419Z,13.10
2022-09-18T19:17:20.095Z,14.00
2022-09-18T19:19:47.172Z,13.20
2022-09-18T19:22:17.238Z,13.30
2022-09-18T19:24:43.966Z,11.60
2022-09-18T19:27:10.774Z,14.20
2022-09-18T19:29:39.637Z,13.60
2022-09-18T19:32:06.810Z,12.90
2022-09-18T19:34:33.453Z,13.20
2022-09-18T19:37:00.014Z,12.60
2022-09-18T19:39:26.959Z,13.30
2022-09-18T19:42:00.366Z,12.70
2022-09-18T19:44:38.067Z,11.50
2022-09-18T19:47:06.512Z,11.50
2022-09-18T19:49:35.400Z,11.50
2022-09-18T19:52:02.625Z,14.00
2022-09-18T19:54:29.540Z,11.50
2022-09-18T19:56:57.202Z,11.50
2022-09-18T19:59:23.943Z,11.60
2022-09-18T20:01:50.778Z,12.80
2022-09-18T20:04:17.376Z,12.80
2022-09-18T20:06:44.319Z,11.50
2022-09-18T20:09:10.892Z,12.60
2022-09-18T20:11:37.575Z,13.10
2022-09-18T20:14:04.164Z,13.50
2022-09-18T20:16:30.901Z,11.50
2022-09-18T20:18:57.697Z,13.60
2022-09-18T20:21:24.331Z,12.50
2022-09-18T20:23:55.602Z,14.20
2022-09-18T20:26:22.261Z,11.80
2022-09-18T20:28:48.897Z,14.20
2022-09-18T20:31:16.297Z,13.40
2022-09-18T20:33:43.555Z,12.40
2022-09-18T20:36:11.411Z,11.60
2022-09-18T20:38:41.838Z,13.90
2022-09-18T20:41:14.052Z,11.60
2022-09-18T20:43:41.831Z,11.50
2022-09-18T20:46:11.542Z,12.50
2022-09-18T20:48:41.742Z,13.00
2022-09-18T20:51:13.245Z,12.20
2022-09-18T20:53:41.415Z,11.30
2022-09-18T20:56:09.236Z,11.50
2022-09-18T20:58:36.175Z,13.00
2022-09-18T21:01:08.330Z,11.20
2022-09-18T21:03:35.368Z,11.10
2022-09-18T21:06:21.472Z,12.50
2022-09-18T21:08:49.149Z,12.40
2022-09-18T21:11:17.106Z,13.30
2022-09-18T21:13:44.645Z,10.90
2022-09-18T21:16:11.340Z,11.10
2022-09-18T21:18:40.822Z,10.90
2022-09-18T21:21:09.364Z,10.80
2022-09-18T21:23:56.185Z,13.20
2022-09-18T21:26:23.728Z,10.90
2022-09-18T21:29:01.227Z,10.80
2022-09-18T21:31:28.237Z,12.50
2022-09-18T21:33:54.918Z,12.20
2022-09-18T21:36:22.432Z,10.70
2022-09-18T21:38:50.271Z,12.60
2022-09-18T21:41:17.698Z,12.80
2022-09-18T21:43:48.237Z,13.40
2022-09-18T21:46:17.461Z,13.20
2022-09-18T21:48:44.133Z,12.40
2022-09-18T21:51:12.386Z,13.20
2022-09-18T21:53:40.185Z,10.60
2022-09-18T21:56:11.176Z,10.60
2022-09-18T21:58:40.668Z,10.60
2022-09-18T22:01:15.792Z,12.10
2022-09-18T22:03:50.538Z,10.50
2022-09-18T22:06:18.219Z,11.30
2022-09-18T22:08:48.678Z,12.90
2022-09-18T22:11:16.117Z,13.30
2022-09-18T22:13:42.825Z,13.00
2022-09-18T22:16:09.906Z,11.70
2022-09-18T22:18:38.682Z,10.60
2022-09-18T22:21:05.945Z,11.40
2022-09-18T22:23:32.699Z,10.50
2022-09-18T22:26:04.533Z,12.90
2022-09-18T22:28:31.076Z,10.50
2022-09-18T22:30:57.903Z,12.50
2022-09-18T22:33:24.691Z,12.00
2022-09-18T22:35:51.361Z,11.00
2022-09-18T22:38:18.133Z,10.40
2022-09-18T22:40:44.746Z,11.60
2022-09-18T22:43:12.222Z,11.40
2022-09-18T22:45:40.521Z,11.60
2022-09-18T22:48:07.554Z,11.10
2022-09-18T22:50:34.203Z,10.20
2022-09-18T22:53:00.776Z,10.20
2022-09-18T22:55:27.382Z,11.80
2022-09-18T22:57:54.334Z,10.10
2022-09-18T23:00:21.037Z,10.90
2022-09-18T23:02:47.650Z,10.00
2022-09-18T23:05:14.888Z,11.00
2022-09-18T23:07:41.489Z,10.00
2022-09-18T23:10:08.471Z,9.90
2022-09-18T23:12:35.138Z,9.90
2022-09-18T23:15:01.764Z,9.90
2022-09-18T23:17:28.415Z,9.90
2022-09-18T23:19:55.495Z,9.90
2022-09-18T23:22:22.171Z,9.90
2022-09-18T23:24:49.198Z,9.90
2022-09-18T23:27:15.794Z,9.90
2022-09-18T23:29:42.349Z,9.90
2022-09-18T23:32:09.426Z,9.90
2022-09-18T23:34:36.286Z,10.70
2022-09-18T23:37:02.883Z,9.80
2022-09-18T23:39:33.539Z,11.40
2022-09-18T23:42:02.004Z,9.70
2022-09-18T23:44:30.105Z,9.70
2022-09-18T23:46:56.992Z,9.60
2022-09-18T23:49:23.823Z,9.30
2022-09-18T23:51:52.176Z,9.10
2022-09-18T23:54:20.186Z,8.80
2022-09-18T23:56:47.275Z,8.60
2022-09-18T23:59:14.721Z,8.50
